sensor_id;sensor_type;location;lat;lon;timestamp;P1;durP1;ratioP1;P2;durP2;ratioP2
31760;SDS011;18335;51.486;7.562;2023-01-29T00:00:19;45.50;;;24.75;;
31760;SDS011;18335;51.486;7.562;2023-01-29T00:02:47;51.33;;;27.35;;
31760;SDS011;18335;51.486;7.562;2023-01-29T00:05:14;54.72;;;26.73;;
31760;SDS011;18335;51.486;7.562;2023-01-29T00:07:42;52.22;;;28.10;;
31760;SDS011;18335;51.486;7.562;2023-01-29T00:10:09;49.35;;;25.27;;
31760;SDS011;18335;51.486;7.562;2023-01-29T00:12:36;43.47;;;24.77;;
31760;SDS011;18335;51.486;7.562;2023-01-29T00:15:03;49.38;;;26.60;;
31760;SDS011;18335;51.486;7.562;2023-01-29T00:17:31;52.60;;;26.75;;
31760;SDS011;18335;51.486;7.562;2023-01-29T00:19:58;51.13;;;25.85;;
31760;SDS011;18335;51.486;7.562;2023-01-29T00:22:24;44.15;;;23.88;;
31760;SDS011;18335;51.486;7.562;2023-01-29T00:24:52;55.63;;;28.80;;
31760;SDS011;18335;51.486;7.562;2023-01-29T00:27:19;52.72;;;27.75;;
31760;SDS011;18335;51.486;7.562;2023-01-29T00:29:46;52.65;;;26.13;;
31760;SDS011;18335;51.486;7.562;2023-01-29T00:32:33;58.17;;;28.05;;
31760;SDS011;18335;51.486;7.562;2023-01-29T00:35:00;51.47;;;27.85;;
31760;SDS011;18335;51.486;7.562;2023-01-29T00:37:27;54.15;;;25.50;;
31760;SDS011;18335;51.486;7.562;2023-01-29T00:39:55;52.72;;;27.23;;
31760;SDS011;18335;51.486;7.562;2023-01-29T00:42:23;55.95;;;28.33;;
31760;SDS011;18335;51.486;7.562;2023-01-29T00:45:09;51.42;;;25.13;;
31760;SDS011;18335;51.486;7.562;2023-01-29T00:47:36;50.15;;;25.75;;
31760;SDS011;18335;51.486;7.562;2023-01-29T00:50:04;54.22;;;26.92;;
31760;SDS011;18335;51.486;7.562;2023-01-29T00:52:32;54.42;;;26.35;;
31760;SDS011;18335;51.486;7.562;2023-01-29T00:55:02;49.97;;;27.15;;
31760;SDS011;18335;51.486;7.562;2023-01-29T00:57:31;56.22;;;28.00;;
31760;SDS011;18335;51.486;7.562;2023-01-29T00:59:59;53.22;;;26.48;;
31760;SDS011;18335;51.486;7.562;2023-01-29T01:02:26;49.88;;;26.58;;
31760;SDS011;18335;51.486;7.562;2023-01-29T01:05:13;53.30;;;25.30;;
31760;SDS011;18335;51.486;7.562;2023-01-29T01:07:43;54.20;;;26.58;;
31760;SDS011;18335;51.486;7.562;2023-01-29T01:10:14;55.13;;;27.17;;
31760;SDS011;18335;51.486;7.562;2023-01-29T01:12:45;51.92;;;28.65;;
31760;SDS011;18335;51.486;7.562;2023-01-29T01:15:12;51.35;;;26.88;;
31760;SDS011;18335;51.486;7.562;2023-01-29T01:17:39;49.35;;;26.48;;
31760;SDS011;18335;51.486;7.562;2023-01-29T01:20:07;57.92;;;26.88;;
31760;SDS011;18335;51.486;7.562;2023-01-29T01:22:35;54.00;;;27.33;;
31760;SDS011;18335;51.486;7.562;2023-01-29T01:25:02;54.80;;;27.58;;
31760;SDS011;18335;51.486;7.562;2023-01-29T01:27:30;48.20;;;26.70;;
31760;SDS011;18335;51.486;7.562;2023-01-29T01:29:59;53.13;;;27.88;;
31760;SDS011;18335;51.486;7.562;2023-01-29T01:32:25;54.72;;;26.33;;
31760;SDS011;18335;51.486;7.562;2023-01-29T01:34:52;48.97;;;25.50;;
31760;SDS011;18335;51.486;7.562;2023-01-29T01:37:19;54.45;;;26.60;;
31760;SDS011;18335;51.486;7.562;2023-01-29T01:39:46;51.30;;;26.98;;
31760;SDS011;18335;51.486;7.562;2023-01-29T01:42:14;51.80;;;27.58;;
31760;SDS011;18335;51.486;7.562;2023-01-29T01:44:51;56.65;;;29.33;;
31760;SDS011;18335;51.486;7.562;2023-01-29T01:47:21;59.20;;;29.25;;
31760;SDS011;18335;51.486;7.562;2023-01-29T01:49:53;55.42;;;26.92;;
31760;SDS011;18335;51.486;7.562;2023-01-29T01:52:26;58.45;;;29.90;;
31760;SDS011;18335;51.486;7.562;2023-01-29T01:54:54;60.70;;;30.33;;
31760;SDS011;18335;51.486;7.562;2023-01-29T01:57:21;54.70;;;28.08;;
31760;SDS011;18335;51.486;7.562;2023-01-29T01:59:53;68.45;;;33.17;;
31760;SDS011;18335;51.486;7.562;2023-01-29T02:02:23;58.67;;;32.80;;
31760;SDS011;18335;51.486;7.562;2023-01-29T02:05:08;56.90;;;27.58;;
31760;SDS011;18335;51.486;7.562;2023-01-29T02:07:55;56.67;;;28.65;;
31760;SDS011;18335;51.486;7.562;2023-01-29T02:10:42;62.28;;;28.42;;
31760;SDS011;18335;51.486;7.562;2023-01-29T02:13:11;59.60;;;29.23;;
31760;SDS011;18335;51.486;7.562;2023-01-29T02:15:44;55.03;;;29.17;;
31760;SDS011;18335;51.486;7.562;2023-01-29T02:18:13;58.50;;;29.98;;
31760;SDS011;18335;51.486;7.562;2023-01-29T02:20:43;57.97;;;29.02;;
31760;SDS011;18335;51.486;7.562;2023-01-29T02:23:20;60.67;;;29.60;;
31760;SDS011;18335;51.486;7.562;2023-01-29T02:26:08;57.17;;;27.33;;
31760;SDS011;18335;51.486;7.562;2023-01-29T02:28:45;60.15;;;28.08;;
31760;SDS011;18335;51.486;7.562;2023-01-29T02:31:20;57.58;;;29.50;;
31760;SDS011;18335;51.486;7.562;2023-01-29T02:33:55;56.85;;;27.77;;
31760;SDS011;18335;51.486;7.562;2023-01-29T02:36:34;54.35;;;26.70;;
31760;SDS011;18335;51.486;7.562;2023-01-29T02:39:07;60.58;;;29.98;;
31760;SDS011;18335;51.486;7.562;2023-01-29T02:41:42;57.58;;;28.13;;
31760;SDS011;18335;51.486;7.562;2023-01-29T02:44:16;63.00;;;29.65;;
31760;SDS011;18335;51.486;7.562;2023-01-29T02:46:51;58.40;;;29.65;;
31760;SDS011;18335;51.486;7.562;2023-01-29T02:51:58;61.22;;;30.48;;
31760;SDS011;18335;51.486;7.562;2023-01-29T02:54:30;59.17;;;29.55;;
31760;SDS011;18335;51.486;7.562;2023-01-29T02:57:07;59.72;;;29.15;;
31760;SDS011;18335;51.486;7.562;2023-01-29T02:59:43;75.00;;;33.97;;
31760;SDS011;18335;51.486;7.562;2023-01-29T03:02:15;64.72;;;33.33;;
31760;SDS011;18335;51.486;7.562;2023-01-29T03:04:47;54.90;;;29.25;;
31760;SDS011;18335;51.486;7.562;2023-01-29T03:07:18;66.78;;;31.23;;
31760;SDS011;18335;51.486;7.562;2023-01-29T03:10:06;61.05;;;30.85;;
31760;SDS011;18335;51.486;7.562;2023-01-29T03:12:40;66.70;;;32.97;;
31760;SDS011;18335;51.486;7.562;2023-01-29T03:15:11;65.43;;;31.15;;
31760;SDS011;18335;51.486;7.562;2023-01-29T03:18:01;59.97;;;30.30;;
31760;SDS011;18335;51.486;7.562;2023-01-29T03:20:34;61.95;;;31.15;;
31760;SDS011;18335;51.486;7.562;2023-01-29T03:23:13;61.55;;;30.30;;
31760;SDS011;18335;51.486;7.562;2023-01-29T03:25:48;68.05;;;34.38;;
31760;SDS011;18335;51.486;7.562;2023-01-29T03:28:37;66.38;;;31.85;;
31760;SDS011;18335;51.486;7.562;2023-01-29T03:31:25;58.58;;;31.50;;
31760;SDS011;18335;51.486;7.562;2023-01-29T03:34:11;63.33;;;31.85;;
31760;SDS011;18335;51.486;7.562;2023-01-29T03:36:49;58.65;;;29.27;;
31760;SDS011;18335;51.486;7.562;2023-01-29T03:39:23;61.85;;;32.08;;
31760;SDS011;18335;51.486;7.562;2023-01-29T03:41:53;65.60;;;31.00;;
31760;SDS011;18335;51.486;7.562;2023-01-29T03:44:27;60.50;;;32.53;;
31760;SDS011;18335;51.486;7.562;2023-01-29T03:47:05;64.45;;;30.60;;
31760;SDS011;18335;51.486;7.562;2023-01-29T03:49:43;62.53;;;30.50;;
31760;SDS011;18335;51.486;7.562;2023-01-29T03:52:19;56.55;;;29.92;;
31760;SDS011;18335;51.486;7.562;2023-01-29T03:54:55;65.32;;;31.55;;
31760;SDS011;18335;51.486;7.562;2023-01-29T03:57:33;61.47;;;30.80;;
31760;SDS011;18335;51.486;7.562;2023-01-29T04:00:06;62.40;;;33.03;;
31760;SDS011;18335;51.486;7.562;2023-01-29T04:02:52;62.00;;;31.40;;
31760;SDS011;18335;51.486;7.562;2023-01-29T04:05:24;67.28;;;32.72;;
31760;SDS011;18335;51.486;7.562;2023-01-29T04:08:20;63.45;;;30.60;;
31760;SDS011;18335;51.486;7.562;2023-01-29T04:10:52;75.57;;;32.95;;
31760;SDS011;18335;51.486;7.562;2023-01-29T04:13:21;63.45;;;32.17;;
31760;SDS011;18335;51.486;7.562;2023-01-29T04:15:52;59.83;;;31.45;;
31760;SDS011;18335;51.486;7.562;2023-01-29T04:18:40;61.92;;;31.58;;
31760;SDS011;18335;51.486;7.562;2023-01-29T04:21:10;75.72;;;31.63;;
31760;SDS011;18335;51.486;7.562;2023-01-29T04:23:37;60.08;;;31.83;;
31760;SDS011;18335;51.486;7.562;2023-01-29T04:26:18;63.05;;;31.20;;
31760;SDS011;18335;51.486;7.562;2023-01-29T04:28:53;61.35;;;32.83;;
31760;SDS011;18335;51.486;7.562;2023-01-29T04:31:31;57.45;;;30.10;;
31760;SDS011;18335;51.486;7.562;2023-01-29T04:34:08;69.82;;;32.83;;
31760;SDS011;18335;51.486;7.562;2023-01-29T04:36:46;65.55;;;31.92;;
31760;SDS011;18335;51.486;7.562;2023-01-29T04:39:28;64.57;;;32.95;;
31760;SDS011;18335;51.486;7.562;2023-01-29T04:42:01;69.63;;;34.05;;
31760;SDS011;18335;51.486;7.562;2023-01-29T04:44:38;67.47;;;33.75;;
31760;SDS011;18335;51.486;7.562;2023-01-29T04:47:13;66.22;;;31.55;;
31760;SDS011;18335;51.486;7.562;2023-01-29T04:49:50;65.72;;;33.38;;
31760;SDS011;18335;51.486;7.562;2023-01-29T04:52:30;70.28;;;33.25;;
31760;SDS011;18335;51.486;7.562;2023-01-29T04:57:34;71.63;;;32.28;;
31760;SDS011;18335;51.486;7.562;2023-01-29T05:00:11;64.82;;;32.63;;
31760;SDS011;18335;51.486;7.562;2023-01-29T05:02:44;66.15;;;33.65;;
31760;SDS011;18335;51.486;7.562;2023-01-29T05:05:13;74.53;;;37.08;;
31760;SDS011;18335;51.486;7.562;2023-01-29T05:07:43;65.40;;;33.70;;
31760;SDS011;18335;51.486;7.562;2023-01-29T05:10:12;67.70;;;33.58;;
31760;SDS011;18335;51.486;7.562;2023-01-29T05:12:42;65.82;;;34.55;;
31760;SDS011;18335;51.486;7.562;2023-01-29T05:15:13;69.28;;;33.08;;
31760;SDS011;18335;51.486;7.562;2023-01-29T05:17:43;66.30;;;34.30;;
31760;SDS011;18335;51.486;7.562;2023-01-29T05:20:10;65.90;;;33.80;;
31760;SDS011;18335;51.486;7.562;2023-01-29T05:22:39;72.18;;;37.00;;
31760;SDS011;18335;51.486;7.562;2023-01-29T05:25:11;67.90;;;32.60;;
31760;SDS011;18335;51.486;7.562;2023-01-29T05:27:47;63.70;;;34.33;;
31760;SDS011;18335;51.486;7.562;2023-01-29T05:30:30;62.50;;;31.48;;
31760;SDS011;18335;51.486;7.562;2023-01-29T05:32:57;69.60;;;34.72;;
31760;SDS011;18335;51.486;7.562;2023-01-29T05:35:25;64.78;;;34.00;;
31760;SDS011;18335;51.486;7.562;2023-01-29T05:37:54;64.72;;;32.90;;
31760;SDS011;18335;51.486;7.562;2023-01-29T05:40:21;63.50;;;33.08;;
31760;SDS011;18335;51.486;7.562;2023-01-29T05:42:48;66.40;;;34.65;;
31760;SDS011;18335;51.486;7.562;2023-01-29T05:45:15;69.78;;;35.67;;
31760;SDS011;18335;51.486;7.562;2023-01-29T05:47:43;62.60;;;33.25;;
31760;SDS011;18335;51.486;7.562;2023-01-29T05:50:10;62.13;;;32.63;;
31760;SDS011;18335;51.486;7.562;2023-01-29T05:52:37;65.07;;;33.80;;
31760;SDS011;18335;51.486;7.562;2023-01-29T05:55:06;64.43;;;31.60;;
31760;SDS011;18335;51.486;7.562;2023-01-29T05:57:34;70.70;;;34.70;;
31760;SDS011;18335;51.486;7.562;2023-01-29T06:00:01;63.53;;;32.38;;
31760;SDS011;18335;51.486;7.562;2023-01-29T06:02:37;68.53;;;34.47;;
31760;SDS011;18335;51.486;7.562;2023-01-29T06:05:04;65.47;;;34.05;;
31760;SDS011;18335;51.486;7.562;2023-01-29T06:07:32;60.75;;;31.75;;
31760;SDS011;18335;51.486;7.562;2023-01-29T06:09:59;63.40;;;31.10;;
31760;SDS011;18335;51.486;7.562;2023-01-29T06:12:27;58.90;;;28.42;;
31760;SDS011;18335;51.486;7.562;2023-01-29T06:14:53;66.82;;;33.65;;
31760;SDS011;18335;51.486;7.562;2023-01-29T06:17:20;61.28;;;29.88;;
31760;SDS011;18335;51.486;7.562;2023-01-29T06:19:47;63.38;;;31.38;;
31760;SDS011;18335;51.486;7.562;2023-01-29T06:22:14;66.30;;;32.30;;
31760;SDS011;18335;51.486;7.562;2023-01-29T06:24:40;56.55;;;29.42;;
31760;SDS011;18335;51.486;7.562;2023-01-29T06:27:07;63.55;;;30.77;;
31760;SDS011;18335;51.486;7.562;2023-01-29T06:29:35;63.40;;;31.40;;
31760;SDS011;18335;51.486;7.562;2023-01-29T06:32:02;67.28;;;31.52;;
31760;SDS011;18335;51.486;7.562;2023-01-29T06:34:29;61.38;;;30.35;;
31760;SDS011;18335;51.486;7.562;2023-01-29T06:36:56;61.15;;;29.85;;
31760;SDS011;18335;51.486;7.562;2023-01-29T06:39:22;64.35;;;31.88;;
31760;SDS011;18335;51.486;7.562;2023-01-29T06:41:49;68.38;;;31.63;;
31760;SDS011;18335;51.486;7.562;2023-01-29T06:44:16;62.83;;;31.75;;
31760;SDS011;18335;51.486;7.562;2023-01-29T06:46:44;62.75;;;31.58;;
31760;SDS011;18335;51.486;7.562;2023-01-29T06:49:11;60.70;;;30.05;;
31760;SDS011;18335;51.486;7.562;2023-01-29T06:51:38;58.38;;;30.50;;
31760;SDS011;18335;51.486;7.562;2023-01-29T06:54:05;63.72;;;32.20;;
31760;SDS011;18335;51.486;7.562;2023-01-29T06:56:33;65.32;;;32.42;;
31760;SDS011;18335;51.486;7.562;2023-01-29T06:58:59;65.38;;;32.58;;
31760;SDS011;18335;51.486;7.562;2023-01-29T07:01:26;64.45;;;31.42;;
31760;SDS011;18335;51.486;7.562;2023-01-29T07:03:54;59.17;;;30.20;;
31760;SDS011;18335;51.486;7.562;2023-01-29T07:06:25;64.53;;;31.92;;
31760;SDS011;18335;51.486;7.562;2023-01-29T07:08:53;63.78;;;31.52;;
31760;SDS011;18335;51.486;7.562;2023-01-29T07:11:20;57.97;;;29.08;;
31760;SDS011;18335;51.486;7.562;2023-01-29T07:13:46;61.22;;;29.23;;
31760;SDS011;18335;51.486;7.562;2023-01-29T07:16:13;61.28;;;30.15;;
31760;SDS011;18335;51.486;7.562;2023-01-29T07:18:40;62.80;;;30.65;;
31760;SDS011;18335;51.486;7.562;2023-01-29T07:21:08;59.63;;;30.35;;
31760;SDS011;18335;51.486;7.562;2023-01-29T07:23:35;67.10;;;31.58;;
31760;SDS011;18335;51.486;7.562;2023-01-29T07:26:02;58.42;;;29.95;;
31760;SDS011;18335;51.486;7.562;2023-01-29T07:28:29;62.47;;;31.00;;
31760;SDS011;18335;51.486;7.562;2023-01-29T07:30:56;63.03;;;29.92;;
31760;SDS011;18335;51.486;7.562;2023-01-29T07:33:23;62.70;;;30.40;;
31760;SDS011;18335;51.486;7.562;2023-01-29T07:35:51;64.95;;;31.65;;
31760;SDS011;18335;51.486;7.562;2023-01-29T07:38:19;56.70;;;30.77;;
31760;SDS011;18335;51.486;7.562;2023-01-29T07:40:47;67.15;;;34.10;;
31760;SDS011;18335;51.486;7.562;2023-01-29T07:43:14;63.00;;;32.65;;
31760;SDS011;18335;51.486;7.562;2023-01-29T07:45:41;64.93;;;33.42;;
31760;SDS011;18335;51.486;7.562;2023-01-29T07:48:09;62.08;;;31.30;;
31760;SDS011;18335;51.486;7.562;2023-01-29T07:50:37;59.78;;;29.60;;
31760;SDS011;18335;51.486;7.562;2023-01-29T07:53:05;63.40;;;30.45;;
31760;SDS011;18335;51.486;7.562;2023-01-29T07:55:33;63.30;;;31.25;;
31760;SDS011;18335;51.486;7.562;2023-01-29T07:58:00;65.30;;;33.72;;
31760;SDS011;18335;51.486;7.562;2023-01-29T08:00:28;63.40;;;33.60;;
31760;SDS011;18335;51.486;7.562;2023-01-29T08:03:00;61.70;;;30.67;;
31760;SDS011;18335;51.486;7.562;2023-01-29T08:05:27;64.40;;;32.63;;
31760;SDS011;18335;51.486;7.562;2023-01-29T08:07:54;62.47;;;28.85;;
31760;SDS011;18335;51.486;7.562;2023-01-29T08:10:21;58.97;;;29.55;;
31760;SDS011;18335;51.486;7.562;2023-01-29T08:12:53;62.25;;;31.80;;
31760;SDS011;18335;51.486;7.562;2023-01-29T08:15:21;63.92;;;31.48;;
31760;SDS011;18335;51.486;7.562;2023-01-29T08:17:47;64.22;;;33.05;;
31760;SDS011;18335;51.486;7.562;2023-01-29T08:20:15;71.57;;;33.92;;
31760;SDS011;18335;51.486;7.562;2023-01-29T08:22:42;62.40;;;29.52;;
31760;SDS011;18335;51.486;7.562;2023-01-29T08:25:09;62.67;;;32.85;;
31760;SDS011;18335;51.486;7.562;2023-01-29T08:27:36;58.47;;;30.40;;
31760;SDS011;18335;51.486;7.562;2023-01-29T08:30:04;65.53;;;32.92;;
31760;SDS011;18335;51.486;7.562;2023-01-29T08:32:32;64.03;;;30.73;;
31760;SDS011;18335;51.486;7.562;2023-01-29T08:34:59;59.88;;;30.90;;
31760;SDS011;18335;51.486;7.562;2023-01-29T08:37:25;55.15;;;29.80;;
31760;SDS011;18335;51.486;7.562;2023-01-29T08:39:53;65.45;;;31.02;;
31760;SDS011;18335;51.486;7.562;2023-01-29T08:42:19;60.17;;;30.00;;
31760;SDS011;18335;51.486;7.562;2023-01-29T08:44:46;61.75;;;31.17;;
31760;SDS011;18335;51.486;7.562;2023-01-29T08:47:14;63.42;;;31.48;;
31760;SDS011;18335;51.486;7.562;2023-01-29T08:49:41;59.42;;;31.98;;
31760;SDS011;18335;51.486;7.562;2023-01-29T08:52:08;68.65;;;35.05;;
31760;SDS011;18335;51.486;7.562;2023-01-29T08:54:34;58.45;;;31.15;;
31760;SDS011;18335;51.486;7.562;2023-01-29T08:57:01;60.13;;;30.27;;
31760;SDS011;18335;51.486;7.562;2023-01-29T08:59:28;64.25;;;30.10;;
31760;SDS011;18335;51.486;7.562;2023-01-29T09:01:55;59.53;;;30.15;;
31760;SDS011;18335;51.486;7.562;2023-01-29T09:04:23;58.40;;;30.33;;
31760;SDS011;18335;51.486;7.562;2023-01-29T09:06:50;60.92;;;31.40;;
31760;SDS011;18335;51.486;7.562;2023-01-29T09:09:17;60.47;;;31.65;;
31760;SDS011;18335;51.486;7.562;2023-01-29T09:11:44;57.70;;;31.30;;
31760;SDS011;18335;51.486;7.562;2023-01-29T09:14:10;63.88;;;31.52;;
31760;SDS011;18335;51.486;7.562;2023-01-29T09:16:38;63.58;;;31.63;;
31760;SDS011;18335;51.486;7.562;2023-01-29T09:19:05;60.05;;;31.58;;
31760;SDS011;18335;51.486;7.562;2023-01-29T09:21:33;56.15;;;29.45;;
31760;SDS011;18335;51.486;7.562;2023-01-29T09:24:00;60.97;;;31.17;;
31760;SDS011;18335;51.486;7.562;2023-01-29T09:26:27;55.80;;;28.23;;
31760;SDS011;18335;51.486;7.562;2023-01-29T09:28:54;60.95;;;30.60;;
31760;SDS011;18335;51.486;7.562;2023-01-29T09:31:20;58.33;;;29.42;;
31760;SDS011;18335;51.486;7.562;2023-01-29T09:33:47;56.95;;;29.85;;
31760;SDS011;18335;51.486;7.562;2023-01-29T09:36:14;55.60;;;30.60;;
31760;SDS011;18335;51.486;7.562;2023-01-29T09:38:42;55.90;;;27.90;;
31760;SDS011;18335;51.486;7.562;2023-01-29T09:41:13;55.60;;;29.80;;
31760;SDS011;18335;51.486;7.562;2023-01-29T09:43:50;56.63;;;28.60;;
31760;SDS011;18335;51.486;7.562;2023-01-29T09:46:21;57.22;;;30.27;;
31760;SDS011;18335;51.486;7.562;2023-01-29T09:48:54;53.83;;;29.55;;
31760;SDS011;18335;51.486;7.562;2023-01-29T09:51:27;56.00;;;29.33;;
31760;SDS011;18335;51.486;7.562;2023-01-29T09:54:04;56.47;;;28.88;;
31760;SDS011;18335;51.486;7.562;2023-01-29T09:56:39;59.63;;;28.23;;
31760;SDS011;18335;51.486;7.562;2023-01-29T09:59:09;55.08;;;27.63;;
31760;SDS011;18335;51.486;7.562;2023-01-29T10:01:39;55.05;;;27.52;;
31760;SDS011;18335;51.486;7.562;2023-01-29T10:04:20;54.75;;;27.40;;
31760;SDS011;18335;51.486;7.562;2023-01-29T10:07:05;53.20;;;28.13;;
31760;SDS011;18335;51.486;7.562;2023-01-29T10:09:48;55.38;;;27.85;;
31760;SDS011;18335;51.486;7.562;2023-01-29T10:12:32;54.63;;;28.77;;
31760;SDS011;18335;51.486;7.562;2023-01-29T10:15:18;57.10;;;30.17;;
31760;SDS011;18335;51.486;7.562;2023-01-29T10:18:01;51.22;;;27.55;;
31760;SDS011;18335;51.486;7.562;2023-01-29T10:20:53;54.05;;;27.15;;
31760;SDS011;18335;51.486;7.562;2023-01-29T10:23:34;54.53;;;27.40;;
31760;SDS011;18335;51.486;7.562;2023-01-29T10:26:05;51.25;;;26.73;;
31760;SDS011;18335;51.486;7.562;2023-01-29T10:28:37;52.25;;;28.98;;
31760;SDS011;18335;51.486;7.562;2023-01-29T10:31:12;57.40;;;28.38;;
31760;SDS011;18335;51.486;7.562;2023-01-29T10:33:44;53.95;;;29.85;;
31760;SDS011;18335;51.486;7.562;2023-01-29T10:36:15;54.58;;;27.88;;
31760;SDS011;18335;51.486;7.562;2023-01-29T10:38:45;58.92;;;31.35;;
31760;SDS011;18335;51.486;7.562;2023-01-29T10:41:18;63.67;;;30.00;;
31760;SDS011;18335;51.486;7.562;2023-01-29T10:43:57;52.38;;;27.33;;
31760;SDS011;18335;51.486;7.562;2023-01-29T10:46:37;60.38;;;30.05;;
31760;SDS011;18335;51.486;7.562;2023-01-29T10:49:27;54.28;;;29.38;;
31760;SDS011;18335;51.486;7.562;2023-01-29T10:52:09;59.00;;;31.42;;
31760;SDS011;18335;51.486;7.562;2023-01-29T10:54:54;61.67;;;31.55;;
31760;SDS011;18335;51.486;7.562;2023-01-29T10:57:39;55.47;;;29.35;;
31760;SDS011;18335;51.486;7.562;2023-01-29T11:02:45;57.25;;;29.83;;
31760;SDS011;18335;51.486;7.562;2023-01-29T11:05:17;59.55;;;31.27;;
31760;SDS011;18335;51.486;7.562;2023-01-29T11:07:48;60.15;;;32.42;;
31760;SDS011;18335;51.486;7.562;2023-01-29T11:10:26;51.45;;;29.25;;
31760;SDS011;18335;51.486;7.562;2023-01-29T11:12:55;56.38;;;29.70;;
31760;SDS011;18335;51.486;7.562;2023-01-29T11:15:23;52.63;;;29.45;;
31760;SDS011;18335;51.486;7.562;2023-01-29T11:18:05;50.63;;;27.10;;
31760;SDS011;18335;51.486;7.562;2023-01-29T11:20:34;50.67;;;28.50;;
31760;SDS011;18335;51.486;7.562;2023-01-29T11:23:01;55.95;;;29.08;;
31760;SDS011;18335;51.486;7.562;2023-01-29T11:25:28;55.85;;;30.80;;
31760;SDS011;18335;51.486;7.562;2023-01-29T11:27:59;51.80;;;27.42;;
31760;SDS011;18335;51.486;7.562;2023-01-29T11:30:29;50.33;;;28.23;;
31760;SDS011;18335;51.486;7.562;2023-01-29T11:33:08;51.17;;;27.98;;
31760;SDS011;18335;51.486;7.562;2023-01-29T11:35:44;55.22;;;31.17;;
31760;SDS011;18335;51.486;7.562;2023-01-29T11:38:18;51.45;;;28.58;;
31760;SDS011;18335;51.486;7.562;2023-01-29T11:40:48;50.65;;;27.67;;
31760;SDS011;18335;51.486;7.562;2023-01-29T11:43:20;50.42;;;25.52;;
31760;SDS011;18335;51.486;7.562;2023-01-29T11:45:53;52.95;;;28.13;;
31760;SDS011;18335;51.486;7.562;2023-01-29T11:48:22;56.20;;;28.20;;
31760;SDS011;18335;51.486;7.562;2023-01-29T11:50:57;45.90;;;26.33;;
31760;SDS011;18335;51.486;7.562;2023-01-29T11:53:32;52.50;;;27.40;;
31760;SDS011;18335;51.486;7.562;2023-01-29T11:56:02;51.08;;;25.75;;
31760;SDS011;18335;51.486;7.562;2023-01-29T11:58:34;54.65;;;28.23;;
31760;SDS011;18335;51.486;7.562;2023-01-29T12:01:01;53.95;;;27.55;;
31760;SDS011;18335;51.486;7.562;2023-01-29T12:03:31;51.70;;;26.80;;
31760;SDS011;18335;51.486;7.562;2023-01-29T12:06:02;50.08;;;28.50;;
31760;SDS011;18335;51.486;7.562;2023-01-29T12:08:33;47.80;;;27.23;;
31760;SDS011;18335;51.486;7.562;2023-01-29T12:11:09;51.17;;;28.73;;
31760;SDS011;18335;51.486;7.562;2023-01-29T12:13:39;50.67;;;26.88;;
31760;SDS011;18335;51.486;7.562;2023-01-29T12:16:19;48.95;;;26.50;;
31760;SDS011;18335;51.486;7.562;2023-01-29T12:18:50;48.47;;;25.17;;
31760;SDS011;18335;51.486;7.562;2023-01-29T12:21:21;47.33;;;27.75;;
31760;SDS011;18335;51.486;7.562;2023-01-29T12:23:54;47.80;;;25.30;;
31760;SDS011;18335;51.486;7.562;2023-01-29T12:26:27;47.88;;;26.80;;
31760;SDS011;18335;51.486;7.562;2023-01-29T12:29:04;46.35;;;25.85;;
31760;SDS011;18335;51.486;7.562;2023-01-29T12:31:43;45.08;;;25.83;;
31760;SDS011;18335;51.486;7.562;2023-01-29T12:34:17;43.00;;;24.75;;
31760;SDS011;18335;51.486;7.562;2023-01-29T12:36:50;43.70;;;23.92;;
31760;SDS011;18335;51.486;7.562;2023-01-29T12:39:20;42.92;;;23.83;;
31760;SDS011;18335;51.486;7.562;2023-01-29T12:41:49;41.10;;;22.05;;
31760;SDS011;18335;51.486;7.562;2023-01-29T12:44:24;45.50;;;24.83;;
31760;SDS011;18335;51.486;7.562;2023-01-29T12:46:56;44.15;;;23.58;;
31760;SDS011;18335;51.486;7.562;2023-01-29T12:49:27;44.80;;;23.73;;
31760;SDS011;18335;51.486;7.562;2023-01-29T12:51:57;42.10;;;22.23;;
31760;SDS011;18335;51.486;7.562;2023-01-29T12:54:31;47.20;;;24.58;;
31760;SDS011;18335;51.486;7.562;2023-01-29T12:57:02;41.85;;;23.35;;
31760;SDS011;18335;51.486;7.562;2023-01-29T12:59:38;42.70;;;23.98;;
31760;SDS011;18335;51.486;7.562;2023-01-29T13:02:13;41.85;;;23.85;;
31760;SDS011;18335;51.486;7.562;2023-01-29T13:04:50;44.05;;;24.35;;
31760;SDS011;18335;51.486;7.562;2023-01-29T13:07:24;43.00;;;24.40;;
31760;SDS011;18335;51.486;7.562;2023-01-29T13:09:58;47.60;;;26.38;;
31760;SDS011;18335;51.486;7.562;2023-01-29T13:12:32;48.38;;;28.63;;
31760;SDS011;18335;51.486;7.562;2023-01-29T13:15:04;47.50;;;26.65;;
31760;SDS011;18335;51.486;7.562;2023-01-29T13:17:39;45.90;;;26.70;;
31760;SDS011;18335;51.486;7.562;2023-01-29T13:20:15;48.70;;;27.65;;
31760;SDS011;18335;51.486;7.562;2023-01-29T13:22:47;45.65;;;25.85;;
31760;SDS011;18335;51.486;7.562;2023-01-29T13:25:18;43.05;;;23.98;;
31760;SDS011;18335;51.486;7.562;2023-01-29T13:27:47;44.55;;;23.50;;
31760;SDS011;18335;51.486;7.562;2023-01-29T13:30:27;40.33;;;22.48;;
31760;SDS011;18335;51.486;7.562;2023-01-29T13:32:55;38.67;;;20.90;;
31760;SDS011;18335;51.486;7.562;2023-01-29T13:35:33;35.88;;;19.40;;
31760;SDS011;18335;51.486;7.562;2023-01-29T13:38:02;42.33;;;22.48;;
31760;SDS011;18335;51.486;7.562;2023-01-29T13:40:30;43.63;;;22.33;;
31760;SDS011;18335;51.486;7.562;2023-01-29T13:42:59;45.85;;;22.00;;
31760;SDS011;18335;51.486;7.562;2023-01-29T13:45:30;40.58;;;21.48;;
31760;SDS011;18335;51.486;7.562;2023-01-29T13:48:08;36.05;;;21.40;;
31760;SDS011;18335;51.486;7.562;2023-01-29T13:50:37;41.45;;;21.35;;
31760;SDS011;18335;51.486;7.562;2023-01-29T13:53:08;36.28;;;21.38;;
31760;SDS011;18335;51.486;7.562;2023-01-29T13:55:47;37.58;;;20.75;;
31760;SDS011;18335;51.486;7.562;2023-01-29T13:58:14;35.97;;;19.48;;
31760;SDS011;18335;51.486;7.562;2023-01-29T14:03:32;42.90;;;19.65;;
31760;SDS011;18335;51.486;7.562;2023-01-29T14:06:09;36.17;;;20.00;;
31760;SDS011;18335;51.486;7.562;2023-01-29T14:08:36;37.50;;;20.60;;
31760;SDS011;18335;51.486;7.562;2023-01-29T14:14:01;38.65;;;21.52;;
31760;SDS011;18335;51.486;7.562;2023-01-29T14:16:49;39.55;;;20.90;;
31760;SDS011;18335;51.486;7.562;2023-01-29T14:19:16;41.97;;;21.05;;
31760;SDS011;18335;51.486;7.562;2023-01-29T14:21:47;39.72;;;21.70;;
31760;SDS011;18335;51.486;7.562;2023-01-29T14:24:15;41.83;;;21.95;;
31760;SDS011;18335;51.486;7.562;2023-01-29T14:26:46;39.80;;;20.55;;
31760;SDS011;18335;51.486;7.562;2023-01-29T14:29:16;40.35;;;23.08;;
31760;SDS011;18335;51.486;7.562;2023-01-29T14:31:46;40.00;;;21.75;;
31760;SDS011;18335;51.486;7.562;2023-01-29T14:34:23;43.25;;;23.17;;
31760;SDS011;18335;51.486;7.562;2023-01-29T14:36:53;45.20;;;22.17;;
31760;SDS011;18335;51.486;7.562;2023-01-29T14:39:23;40.65;;;21.02;;
31760;SDS011;18335;51.486;7.562;2023-01-29T14:41:56;40.65;;;21.08;;
31760;SDS011;18335;51.486;7.562;2023-01-29T14:47:19;40.78;;;22.27;;
31760;SDS011;18335;51.486;7.562;2023-01-29T14:49:48;42.97;;;22.52;;
31760;SDS011;18335;51.486;7.562;2023-01-29T14:52:16;41.47;;;22.02;;
31760;SDS011;18335;51.486;7.562;2023-01-29T14:54:45;43.70;;;23.48;;
31760;SDS011;18335;51.486;7.562;2023-01-29T14:57:14;41.30;;;22.35;;
31760;SDS011;18335;51.486;7.562;2023-01-29T14:59:45;41.10;;;23.05;;
31760;SDS011;18335;51.486;7.562;2023-01-29T15:02:21;40.25;;;20.63;;